createdAt,value
2022-11-22T00:00:33.336Z,17.13
2022-11-22T00:02:36.867Z,17.40
2022-11-22T00:04:40.321Z,18.27
2022-11-22T00:06:43.734Z,17.48
2022-11-22T00:08:47.199Z,18.05
2022-11-22T00:10:50.900Z,18.13
2022-11-22T00:12:56.081Z,18.98
2022-11-22T00:14:59.528Z,19.50
2022-11-22T00:17:02.900Z,16.83
2022-11-22T00:19:06.455Z,19.20
2022-11-22T00:21:09.930Z,17.75
2022-11-22T00:23:13.201Z,18.05
2022-11-22T00:25:16.950Z,18.58
2022-11-22T00:27:21.010Z,19.83
2022-11-22T00:29:25.633Z,20.17
2022-11-22T00:31:29.035Z,19.90
2022-11-22T00:33:32.406Z,19.67
2022-11-22T00:35:35.711Z,23.40
2022-11-22T00:37:39.110Z,24.17
2022-11-22T00:39:42.471Z,19.45
2022-11-22T00:41:45.763Z,20.38
2022-11-22T00:43:49.154Z,20.73
2022-11-22T00:45:54.305Z,23.13
2022-11-22T00:47:57.598Z,20.67
2022-11-22T00:50:00.925Z,17.85
2022-11-22T00:52:04.276Z,22.60
2022-11-22T00:54:08.103Z,20.25
2022-11-22T00:56:11.427Z,21.83
2022-11-22T00:58:14.757Z,16.23
2022-11-22T01:00:18.889Z,15.93
2022-11-22T01:02:23.596Z,17.85
2022-11-22T01:04:26.996Z,16.73
2022-11-22T01:06:30.565Z,18.50
2022-11-22T01:08:33.928Z,17.83
2022-11-22T01:10:37.553Z,19.42
2022-11-22T01:12:40.905Z,18.60
2022-11-22T01:14:44.255Z,18.20
2022-11-22T01:16:47.935Z,20.25
2022-11-22T01:18:52.684Z,17.55
2022-11-22T01:20:56.074Z,20.95
2022-11-22T01:22:59.543Z,19.83
2022-11-22T01:25:02.957Z,18.13
2022-11-22T01:27:06.329Z,17.02
2022-11-22T01:29:09.641Z,15.20
2022-11-22T01:31:12.949Z,12.95
2022-11-22T01:33:16.261Z,13.35
2022-11-22T01:35:21.127Z,13.10
2022-11-22T01:37:24.449Z,13.40
2022-11-22T01:39:28.429Z,11.35
2022-11-22T01:41:31.966Z,12.80
2022-11-22T01:43:35.364Z,13.90
2022-11-22T01:45:44.770Z,13.70
2022-11-22T01:47:48.160Z,12.10
2022-11-22T01:49:56.336Z,15.25
2022-11-22T01:52:07.012Z,15.73
2022-11-22T01:54:14.281Z,15.38
2022-11-22T01:56:21.295Z,18.75
2022-11-22T01:58:25.963Z,16.58
2022-11-22T02:00:29.397Z,15.93
2022-11-22T02:02:32.837Z,18.15
2022-11-22T02:04:38.134Z,17.08
2022-11-22T02:06:48.164Z,16.92
2022-11-22T02:08:58.004Z,15.82
2022-11-22T02:11:03.905Z,15.77
2022-11-22T02:13:09.345Z,18.27
2022-11-22T02:15:13.205Z,21.70
2022-11-22T02:17:16.691Z,20.25
2022-11-22T02:19:24.672Z,20.42
2022-11-22T02:21:28.647Z,18.70
2022-11-22T02:23:42.684Z,24.40
2022-11-22T02:25:55.504Z,19.80
2022-11-22T02:27:58.873Z,17.80
2022-11-22T02:30:02.235Z,22.35
2022-11-22T02:32:05.661Z,23.98
2022-11-22T02:34:09.762Z,17.45
2022-11-22T02:36:13.776Z,19.35
2022-11-22T02:38:19.536Z,23.13
2022-11-22T02:40:23.728Z,22.42
2022-11-22T02:42:31.697Z,19.55
2022-11-22T02:44:35.609Z,26.75
2022-11-22T02:46:48.348Z,28.20
2022-11-22T02:48:51.884Z,20.83
2022-11-22T02:50:55.206Z,22.00
2022-11-22T02:52:58.663Z,20.27
2022-11-22T02:55:02.032Z,18.25
2022-11-22T02:57:05.566Z,19.83
2022-11-22T02:59:10.559Z,21.00
2022-11-22T03:01:14.699Z,18.73
2022-11-22T03:03:18.011Z,18.83
2022-11-22T03:05:21.384Z,24.45
2022-11-22T03:07:24.743Z,25.90
2022-11-22T03:09:29.273Z,21.42
2022-11-22T03:11:32.888Z,25.77
2022-11-22T03:13:36.172Z,28.05
2022-11-22T03:15:40.997Z,23.90
2022-11-22T03:17:44.866Z,20.88
2022-11-22T03:19:48.226Z,21.50
2022-11-22T03:21:51.827Z,17.67
2022-11-22T03:23:56.339Z,18.88
2022-11-22T03:25:59.969Z,18.45
2022-11-22T03:28:03.258Z,17.48
2022-11-22T03:30:07.650Z,18.70
2022-11-22T03:32:12.469Z,17.35
2022-11-22T03:34:16.233Z,18.67
2022-11-22T03:36:19.975Z,19.58
2022-11-22T03:38:23.367Z,19.02
2022-11-22T03:40:26.651Z,19.42
2022-11-22T03:42:30.021Z,16.42
2022-11-22T03:44:33.470Z,18.58
2022-11-22T03:46:36.886Z,17.25
2022-11-22T03:48:41.621Z,15.18
2022-11-22T03:50:45.530Z,15.52
2022-11-22T03:52:48.811Z,15.48
2022-11-22T03:54:52.304Z,14.25
2022-11-22T03:56:55.739Z,13.93
2022-11-22T03:58:59.117Z,15.43
2022-11-22T04:01:03.299Z,14.57
2022-11-22T04:03:06.690Z,15.05
2022-11-22T04:05:11.573Z,14.00
2022-11-22T04:07:14.949Z,16.13
2022-11-22T04:09:18.369Z,14.30
2022-11-22T04:11:21.804Z,14.95
2022-11-22T04:13:45.492Z,13.13
2022-11-22T04:15:47.847Z,14.27
2022-11-22T04:17:51.323Z,14.32
2022-11-22T04:20:21.977Z,15.65
2022-11-22T04:22:25.708Z,16.83
2022-11-22T04:24:46.284Z,15.80
2022-11-22T04:26:50.286Z,17.63
2022-11-22T04:29:09.342Z,15.40
2022-11-22T04:31:30.754Z,14.80
2022-11-22T04:33:34.124Z,15.65
2022-11-22T04:35:37.403Z,16.27
2022-11-22T04:37:42.569Z,14.15
2022-11-22T04:39:45.936Z,15.15
2022-11-22T04:42:09.240Z,16.35
2022-11-22T04:44:30.092Z,16.00
2022-11-22T04:46:33.652Z,16.92
2022-11-22T04:48:37.048Z,14.50
2022-11-22T04:50:59.777Z,17.40
2022-11-22T04:53:04.616Z,21.05
2022-11-22T04:55:08.555Z,19.02
2022-11-22T04:57:12.158Z,18.02
2022-11-22T04:59:15.597Z,18.42
2022-11-22T05:01:19.119Z,15.60
2022-11-22T05:03:22.632Z,16.15
2022-11-22T05:05:26.663Z,15.43
2022-11-22T05:07:30.113Z,17.73
2022-11-22T05:09:34.965Z,16.50
2022-11-22T05:11:38.250Z,17.65
2022-11-22T05:13:42.796Z,15.82
2022-11-22T05:15:46.081Z,17.70
2022-11-22T05:17:49.659Z,17.23
2022-11-22T05:19:53.152Z,18.73
2022-11-22T05:21:56.437Z,17.60
2022-11-22T05:23:58.912Z,19.50
2022-11-22T05:26:04.067Z,18.65
2022-11-22T05:28:07.435Z,15.55
2022-11-22T05:30:11.359Z,16.52
2022-11-22T05:32:14.625Z,16.05
2022-11-22T05:34:17.981Z,16.48
2022-11-22T05:36:22.265Z,17.20
2022-11-22T05:38:25.548Z,15.10
2022-11-22T05:40:28.915Z,18.00
2022-11-22T05:42:34.557Z,14.77
2022-11-22T05:44:37.845Z,16.33
2022-11-22T05:46:41.196Z,15.18
2022-11-22T05:48:46.189Z,15.02
2022-11-22T05:50:49.564Z,15.95
2022-11-22T05:52:53.000Z,14.35
2022-11-22T05:54:56.446Z,13.07
2022-11-22T05:56:59.776Z,22.58
2022-11-22T05:59:04.728Z,20.98
2022-11-22T06:01:09.715Z,16.58
2022-11-22T06:03:13.226Z,18.30
2022-11-22T06:05:16.742Z,15.13
2022-11-22T06:07:20.163Z,15.88
2022-11-22T06:09:24.291Z,16.35
2022-11-22T06:11:29.222Z,15.00
2022-11-22T06:13:36.505Z,16.08
2022-11-22T06:15:41.432Z,15.57
2022-11-22T06:17:44.992Z,16.25
2022-11-22T06:19:48.421Z,16.92
2022-11-22T06:21:51.819Z,16.30
2022-11-22T06:23:56.811Z,15.68
2022-11-22T06:26:00.749Z,14.60
2022-11-22T06:28:04.161Z,15.40
2022-11-22T06:30:08.756Z,15.20
2022-11-22T06:32:13.890Z,16.75
2022-11-22T06:34:17.319Z,16.98
2022-11-22T06:36:22.524Z,15.07
2022-11-22T06:38:25.808Z,18.52
2022-11-22T06:40:29.199Z,17.98
2022-11-22T06:42:32.699Z,15.90
2022-11-22T06:44:36.097Z,15.98
2022-11-22T06:46:39.581Z,17.33
2022-11-22T06:48:44.821Z,16.95
2022-11-22T06:50:48.178Z,17.17
2022-11-22T06:52:52.604Z,17.75
2022-11-22T06:54:55.987Z,17.38
2022-11-22T06:56:59.272Z,17.00
2022-11-22T06:59:04.327Z,18.40
2022-11-22T07:01:09.107Z,19.35
2022-11-22T07:03:12.577Z,20.60
2022-11-22T07:05:25.626Z,20.27
2022-11-22T07:07:29.511Z,20.17
2022-11-22T07:09:33.307Z,20.95
2022-11-22T07:11:37.807Z,17.83
2022-11-22T07:13:41.345Z,20.88
2022-11-22T07:15:44.693Z,19.23
2022-11-22T07:17:48.214Z,18.98
2022-11-22T07:19:51.506Z,18.50
2022-11-22T07:21:56.200Z,17.10
2022-11-22T07:23:59.474Z,17.42
2022-11-22T07:26:02.956Z,16.73
2022-11-22T07:28:06.464Z,15.52
2022-11-22T07:30:11.336Z,16.85
2022-11-22T07:32:14.624Z,17.15
2022-11-22T07:34:17.863Z,16.80
2022-11-22T07:36:22.596Z,16.95
2022-11-22T07:38:28.168Z,16.58
2022-11-22T07:40:31.508Z,16.10
2022-11-22T07:42:34.814Z,16.70
2022-11-22T07:44:38.069Z,17.20
2022-11-22T07:46:41.415Z,16.90
2022-11-22T07:48:44.778Z,16.80
2022-11-22T07:50:48.074Z,17.75
2022-11-22T07:52:56.921Z,17.25
2022-11-22T07:55:01.643Z,17.60
2022-11-22T07:57:05.142Z,14.98
2022-11-22T07:59:08.354Z,16.25
2022-11-22T08:01:13.623Z,16.40
2022-11-22T08:03:18.031Z,16.50
2022-11-22T08:05:22.313Z,17.90
2022-11-22T08:07:25.769Z,16.77
2022-11-22T08:09:29.232Z,15.73
2022-11-22T08:11:36.870Z,17.48
2022-11-22T08:13:40.484Z,17.30
2022-11-22T08:15:43.672Z,17.40
2022-11-22T08:17:46.869Z,16.75
2022-11-22T08:19:53.531Z,19.10
2022-11-22T08:21:58.647Z,18.42
2022-11-22T08:24:02.141Z,19.65
2022-11-22T08:26:06.040Z,19.17
2022-11-22T08:28:10.687Z,21.35
2022-11-22T08:30:14.691Z,19.00
2022-11-22T08:32:17.960Z,21.25
2022-11-22T08:34:21.168Z,18.90
2022-11-22T08:36:24.759Z,18.95
2022-11-22T08:38:28.568Z,18.85
2022-11-22T08:40:34.484Z,18.77
2022-11-22T08:42:39.956Z,18.90
2022-11-22T08:44:44.655Z,18.23
2022-11-22T08:46:48.010Z,17.50
2022-11-22T08:48:53.888Z,20.23
2022-11-22T08:50:59.262Z,18.05
2022-11-22T08:53:02.914Z,17.70
2022-11-22T08:55:07.278Z,20.65
2022-11-22T08:57:10.513Z,18.58
2022-11-22T08:59:13.884Z,19.42
2022-11-22T09:01:21.384Z,18.23
2022-11-22T09:03:24.988Z,18.35
2022-11-22T09:05:28.422Z,20.83
2022-11-22T09:09:56.302Z,22.00
2022-11-22T09:11:59.557Z,17.83
2022-11-22T09:14:02.879Z,19.92
2022-11-22T09:16:08.483Z,21.20
2022-11-22T09:18:13.186Z,20.90
2022-11-22T09:20:16.900Z,19.98
2022-11-22T09:22:22.835Z,22.40
2022-11-22T09:24:28.700Z,21.83
2022-11-22T09:26:31.945Z,21.63
2022-11-22T09:28:35.742Z,21.80
2022-11-22T09:30:38.924Z,20.77
2022-11-22T09:32:44.840Z,20.20
2022-11-22T09:34:49.538Z,20.00
2022-11-22T09:36:52.712Z,19.27
2022-11-22T09:38:57.171Z,21.85
2022-11-22T09:41:03.468Z,20.40
2022-11-22T09:43:18.526Z,20.52
2022-11-22T09:45:41.070Z,20.17
2022-11-22T09:47:53.962Z,19.13
2022-11-22T09:50:08.415Z,19.58
2022-11-22T09:52:16.235Z,17.58
2022-11-22T09:54:25.383Z,19.55
2022-11-22T09:56:32.243Z,17.50
2022-11-22T09:58:39.972Z,18.27
2022-11-22T10:00:50.686Z,18.60
2022-11-22T10:03:05.412Z,17.15
2022-11-22T10:05:18.838Z,19.20
2022-11-22T10:07:27.328Z,18.55
2022-11-22T10:09:40.238Z,15.38
2022-11-22T10:11:48.420Z,13.68
2022-11-22T10:13:57.581Z,15.80
2022-11-22T10:16:08.714Z,14.30
2022-11-22T10:18:19.327Z,15.27
2022-11-22T10:20:26.087Z,13.80
2022-11-22T10:22:31.418Z,12.98
2022-11-22T10:24:34.692Z,14.45
2022-11-22T10:26:39.456Z,14.77
2022-11-22T10:28:49.478Z,14.38
2022-11-22T10:31:02.496Z,14.27
2022-11-22T10:33:14.285Z,13.98
2022-11-22T10:35:29.754Z,14.07
2022-11-22T10:37:45.129Z,13.93
2022-11-22T10:40:02.108Z,12.63
2022-11-22T10:42:20.217Z,12.90
2022-11-22T10:44:35.928Z,13.88
2022-11-22T10:46:55.221Z,13.30
2022-11-22T10:49:08.479Z,13.50
2022-11-22T10:51:21.228Z,14.43
2022-11-22T10:53:35.775Z,14.57
2022-11-22T10:55:50.948Z,15.20
2022-11-22T10:58:03.490Z,15.25
2022-11-22T11:00:21.727Z,15.65
2022-11-22T11:02:44.631Z,12.05
2022-11-22T11:04:48.995Z,13.63
2022-11-22T11:07:14.075Z,14.02
2022-11-22T11:10:09.041Z,13.98
2022-11-22T11:11:48.079Z,13.23
2022-11-22T11:13:55.227Z,12.70
2022-11-22T11:16:01.964Z,13.95
2022-11-22T11:18:09.665Z,13.60
2022-11-22T11:20:21.287Z,16.50
2022-11-22T11:22:58.645Z,14.20
2022-11-22T11:24:53.067Z,15.03
2022-11-22T11:26:58.486Z,13.20
2022-11-22T11:29:38.365Z,13.80
2022-11-22T11:31:44.716Z,14.55
2022-11-22T11:33:48.685Z,14.10
2022-11-22T11:35:55.337Z,12.23
2022-11-22T11:38:00.040Z,13.38
2022-11-22T11:40:03.448Z,12.73
2022-11-22T11:42:22.627Z,12.80
2022-11-22T11:44:32.471Z,11.90
2022-11-22T11:46:46.681Z,11.35
2022-11-22T11:48:50.984Z,12.40
2022-11-22T11:50:54.429Z,12.57
2022-11-22T11:53:04.559Z,11.75
2022-11-22T11:55:18.735Z,11.80
2022-11-22T11:57:27.192Z,11.20
2022-11-22T11:59:43.713Z,12.50
2022-11-22T12:02:00.474Z,11.45
2022-11-22T12:04:06.347Z,10.82
2022-11-22T12:06:14.075Z,12.00
2022-11-22T12:08:31.563Z,13.67
2022-11-22T12:10:42.247Z,11.80
2022-11-22T12:12:47.871Z,13.73
2022-11-22T12:15:11.572Z,12.85
2022-11-22T12:17:25.987Z,12.75
2022-11-22T12:19:32.269Z,11.67
2022-11-22T12:21:46.414Z,13.50
2022-11-22T12:24:19.569Z,12.18
2022-11-22T12:26:21.970Z,12.57
2022-11-22T12:28:27.662Z,13.23
2022-11-22T12:30:33.160Z,12.15
2022-11-22T12:32:41.364Z,11.07
2022-11-22T12:34:52.885Z,11.35
2022-11-22T12:37:01.787Z,11.37
2022-11-22T12:39:10.708Z,11.23
2022-11-22T12:41:17.622Z,11.60
2022-11-22T12:43:24.454Z,13.30
2022-11-22T12:45:32.095Z,13.67
2022-11-22T12:47:40.826Z,11.60
2022-11-22T12:49:46.894Z,13.38
2022-11-22T12:51:55.124Z,13.77
2022-11-22T12:54:02.702Z,13.48
2022-11-22T12:56:20.163Z,13.70
2022-11-22T12:58:31.103Z,12.50
2022-11-22T13:00:41.395Z,13.13
2022-11-22T13:02:58.804Z,15.18
2022-11-22T13:05:05.644Z,14.05
2022-11-22T13:07:16.641Z,14.40
2022-11-22T13:09:23.193Z,15.43
2022-11-22T13:11:33.547Z,16.98
2022-11-22T13:13:40.727Z,14.88
2022-11-22T13:15:45.451Z,16.20
2022-11-22T13:17:49.023Z,14.45
2022-11-22T13:19:55.447Z,15.88
2022-11-22T13:22:12.059Z,11.40
2022-11-22T13:24:29.147Z,10.40
2022-11-22T13:26:43.169Z,11.27
2022-11-22T13:28:47.764Z,10.77
2022-11-22T13:31:14.104Z,9.00
2022-11-22T13:33:26.187Z,7.43
2022-11-22T13:35:33.117Z,6.90
2022-11-22T13:37:39.952Z,7.72
2022-11-22T13:39:47.078Z,7.15
2022-11-22T13:42:04.346Z,6.35
2022-11-22T13:44:29.770Z,6.40
2022-11-22T13:46:58.249Z,4.32
2022-11-22T13:49:35.311Z,4.18
2022-11-22T13:51:57.388Z,4.15
2022-11-22T13:54:34.416Z,3.15
2022-11-22T13:56:58.214Z,3.15
2022-11-22T13:59:15.611Z,2.95
2022-11-22T14:02:06.912Z,3.13
2022-11-22T14:04:27.320Z,2.67
2022-11-22T14:06:31.632Z,2.65
2022-11-22T14:08:37.234Z,2.63
2022-11-22T14:10:59.914Z,2.13
2022-11-22T14:13:20.524Z,2.63
2022-11-22T14:16:04.369Z,2.25
2022-11-22T14:18:21.772Z,3.65
2022-11-22T14:20:38.291Z,2.50
2022-11-22T14:22:51.388Z,3.40
2022-11-22T14:25:08.341Z,2.90
2022-11-22T14:27:28.141Z,2.42
2022-11-22T14:29:56.787Z,3.80
2022-11-22T14:32:05.085Z,3.22
2022-11-22T14:34:22.311Z,4.30
2022-11-22T14:36:25.596Z,4.30
2022-11-22T14:38:31.849Z,4.18
2022-11-22T14:40:37.911Z,3.95
2022-11-22T14:42:59.004Z,4.50
2022-11-22T14:45:03.834Z,4.38
2022-11-22T14:47:14.813Z,4.60
2022-11-22T14:49:24.650Z,4.25
2022-11-22T14:51:32.284Z,5.47
2022-11-22T14:53:41.880Z,5.28
2022-11-22T14:55:45.531Z,5.55
2022-11-22T14:57:53.168Z,4.30
2022-11-22T15:00:18.139Z,5.15
2022-11-22T15:03:03.121Z,5.35
2022-11-22T15:09:12.524Z,4.13
2022-11-22T15:09:23.223Z,4.85
2022-11-22T15:11:01.950Z,4.40
2022-11-22T15:13:36.784Z,4.93
2022-11-22T15:57:32.176Z,3.15
2022-11-22T15:59:39.501Z,3.85
2022-11-22T16:01:45.532Z,4.00
2022-11-22T16:03:52.184Z,4.05
2022-11-22T16:06:07.738Z,5.00
2022-11-22T16:08:16.480Z,4.72
2022-11-22T16:10:24.280Z,5.65
2022-11-22T16:12:30.352Z,4.50
2022-11-22T16:14:49.149Z,3.80
2022-11-22T16:16:54.416Z,4.38
2022-11-22T16:19:20.889Z,4.10
2022-11-22T16:21:29.315Z,3.90
2022-11-22T16:23:35.057Z,3.75
2022-11-22T16:25:41.821Z,4.95
2022-11-22T16:27:47.940Z,3.63
2022-11-22T16:29:52.457Z,4.30
2022-11-22T16:32:01.812Z,3.80
2022-11-22T16:34:13.729Z,4.30
2022-11-22T16:36:18.344Z,3.17
2022-11-22T16:38:21.778Z,2.88
2022-11-22T16:40:25.056Z,2.60
2022-11-22T16:42:29.954Z,3.28
2022-11-22T16:44:33.295Z,2.85
2022-11-22T16:46:36.525Z,3.90
2022-11-22T16:48:39.865Z,3.42
2022-11-22T16:50:43.518Z,4.05
2022-11-22T16:52:47.700Z,5.10
2022-11-22T16:54:51.171Z,4.90
2022-11-22T16:56:54.406Z,5.32
2022-11-22T16:59:00.358Z,5.13
2022-11-22T17:01:03.810Z,4.80
2022-11-22T17:03:07.246Z,4.57
2022-11-22T17:05:17.672Z,3.72
2022-11-22T17:07:20.939Z,4.32
2022-11-22T17:09:24.180Z,4.18
2022-11-22T17:11:30.952Z,3.80
2022-11-22T17:13:34.139Z,4.63
2022-11-22T17:15:41.154Z,4.10
2022-11-22T17:17:44.604Z,4.18
2022-11-22T17:19:55.398Z,4.22
2022-11-22T17:21:58.744Z,5.57
2022-11-22T17:24:03.697Z,4.43
2022-11-22T17:26:07.574Z,4.43
2022-11-22T17:28:10.761Z,4.25
2022-11-22T17:30:15.364Z,3.72
2022-11-22T17:32:20.057Z,4.18
2022-11-22T17:34:23.396Z,4.25
2022-11-22T17:36:29.376Z,4.03
2022-11-22T17:38:32.639Z,3.88
2022-11-22T17:40:36.123Z,4.63
2022-11-22T17:42:41.261Z,3.75
2022-11-22T17:44:44.777Z,4.70
2022-11-22T17:46:48.044Z,3.85
2022-11-22T17:48:57.934Z,3.60
2022-11-22T17:51:05.631Z,4.03
2022-11-22T17:53:09.904Z,3.55
2022-11-22T17:55:14.774Z,3.55
2022-11-22T17:57:18.961Z,3.25
2022-11-22T17:59:22.207Z,4.28
2022-11-22T18:01:25.440Z,2.95
2022-11-22T18:03:28.685Z,3.75
2022-11-22T18:05:35.672Z,3.67
2022-11-22T18:07:39.889Z,3.85
2022-11-22T18:09:43.161Z,2.28
2022-11-22T18:11:46.419Z,3.78
2022-11-22T18:13:49.917Z,2.50
2022-11-22T18:15:57.322Z,3.17
2022-11-22T18:18:03.638Z,3.05
2022-11-22T18:20:07.850Z,2.90
2022-11-22T18:22:12.569Z,3.25
2022-11-22T18:24:15.964Z,3.15
2022-11-22T18:28:42.840Z,3.50
2022-11-22T18:30:46.984Z,3.75
2022-11-22T18:32:50.376Z,2.60
2022-11-22T18:34:53.798Z,2.90
2022-11-22T18:37:02.141Z,3.30
2022-11-22T18:39:08.814Z,2.47
2022-11-22T18:41:12.181Z,2.88
2022-11-22T18:43:15.395Z,2.08
2022-11-22T18:45:20.370Z,2.15
2022-11-22T18:47:26.746Z,2.45
2022-11-22T18:49:30.650Z,2.92
2022-11-22T18:51:34.449Z,2.63
2022-11-22T18:53:39.117Z,2.85
2022-11-22T18:55:43.825Z,2.13
2022-11-22T18:57:47.522Z,1.80
2022-11-22T18:59:50.825Z,2.20
2022-11-22T19:01:54.203Z,2.80
2022-11-22T19:03:57.521Z,2.40
2022-11-22T19:06:00.781Z,3.38
2022-11-22T19:08:04.032Z,3.00
2022-11-22T19:10:08.990Z,2.60
2022-11-22T19:12:13.679Z,2.92
2022-11-22T19:14:17.107Z,2.58
2022-11-22T19:19:43.239Z,2.22
2022-11-22T19:21:46.499Z,2.80
2022-11-22T19:23:50.787Z,2.30
2022-11-22T19:25:54.124Z,2.38
2022-11-22T19:27:58.902Z,2.70
2022-11-22T19:30:03.236Z,2.17
2022-11-22T19:32:10.185Z,2.22
2022-11-22T19:34:16.245Z,2.13
2022-11-22T19:36:21.155Z,2.35
2022-11-22T19:38:24.413Z,2.80
2022-11-22T19:40:27.753Z,2.08
2022-11-22T19:42:33.657Z,1.98
2022-11-22T19:44:38.764Z,1.95
2022-11-22T19:46:42.716Z,1.40
2022-11-22T19:48:47.375Z,1.67
2022-11-22T19:50:50.783Z,1.35
2022-11-22T19:52:54.198Z,1.55
2022-11-22T19:54:57.545Z,2.95
2022-11-22T19:57:00.801Z,1.67
2022-11-22T19:59:06.345Z,1.90
2022-11-22T20:01:13.048Z,1.60
2022-11-22T20:03:16.389Z,1.90
2022-11-22T20:05:19.785Z,1.10
2022-11-22T20:07:23.071Z,1.48
2022-11-22T20:09:26.617Z,1.50
2022-11-22T20:11:29.979Z,1.77
2022-11-22T20:13:36.212Z,1.40
2022-11-22T20:15:39.847Z,1.88
2022-11-22T20:17:44.656Z,1.48
2022-11-22T20:19:48.024Z,1.50
2022-11-22T20:21:51.429Z,1.48
2022-11-22T20:23:55.325Z,1.25
2022-11-22T20:26:03.828Z,1.55
2022-11-22T20:28:07.320Z,1.20
2022-11-22T20:30:11.666Z,1.30
2022-11-22T20:32:15.264Z,1.58
2022-11-22T20:34:20.914Z,1.60
2022-11-22T20:36:26.220Z,1.30
2022-11-22T20:38:29.556Z,1.25
2022-11-22T20:40:33.002Z,1.40
2022-11-22T20:42:36.652Z,1.20
2022-11-22T20:44:40.096Z,0.80
2022-11-22T20:46:44.523Z,1.23
2022-11-22T20:48:59.618Z,1.77
2022-11-22T20:51:07.787Z,1.33
2022-11-22T20:53:11.139Z,1.45
2022-11-22T20:55:14.600Z,0.90
2022-11-22T20:57:17.885Z,1.00
2022-11-22T20:59:21.094Z,1.40
2022-11-22T21:01:25.939Z,1.30
2022-11-22T21:03:29.230Z,1.10
2022-11-22T21:05:32.604Z,1.05
2022-11-22T21:07:37.422Z,1.20
2022-11-22T21:09:40.804Z,0.85
2022-11-22T21:11:45.528Z,1.10
2022-11-22T21:13:49.427Z,1.45
2022-11-22T21:15:52.723Z,1.00
2022-11-22T21:18:23.622Z,1.30
2022-11-22T21:20:21.559Z,1.13
2022-11-22T21:22:30.198Z,1.30
2022-11-22T21:24:37.283Z,1.30
2022-11-22T21:26:40.730Z,1.05
2022-11-22T21:28:44.434Z,1.40
2022-11-22T21:30:47.772Z,1.27
2022-11-22T21:32:51.663Z,1.30
2022-11-22T21:34:54.893Z,1.17
2022-11-22T21:36:58.189Z,1.20
2022-11-22T21:39:01.674Z,1.50
2022-11-22T21:41:38.182Z,1.33
2022-11-22T21:43:31.397Z,1.10
2022-11-22T21:45:34.759Z,1.60
2022-11-22T21:47:38.079Z,1.35
2022-11-22T21:49:41.647Z,1.40
2022-11-22T21:51:45.210Z,1.23
2022-11-22T21:53:48.565Z,0.82
2022-11-22T21:55:52.760Z,1.05
2022-11-22T21:57:57.586Z,1.08
2022-11-22T22:00:00.890Z,1.00
2022-11-22T22:02:04.318Z,1.20
2022-11-22T22:04:07.889Z,1.38
2022-11-22T22:06:11.216Z,1.90
2022-11-22T22:08:14.598Z,2.28
2022-11-22T22:10:18.123Z,1.60
2022-11-22T22:12:21.324Z,1.05
2022-11-22T22:14:27.207Z,1.73
2022-11-22T22:16:30.491Z,1.52
2022-11-22T22:18:35.049Z,0.80
2022-11-22T22:20:38.509Z,1.05
2022-11-22T22:22:41.903Z,0.90
2022-11-22T22:24:45.336Z,1.27
2022-11-22T22:26:49.609Z,0.95
2022-11-22T22:28:54.535Z,1.55
2022-11-22T22:31:10.319Z,0.93
2022-11-22T22:33:13.588Z,0.90
2022-11-22T22:35:17.111Z,0.80
2022-11-22T22:37:20.691Z,0.75
2022-11-22T22:39:24.022Z,0.90
2022-11-22T22:41:27.335Z,1.08
2022-11-22T22:43:32.372Z,1.08
2022-11-22T22:45:40.557Z,1.10
2022-11-22T22:47:45.274Z,1.00
2022-11-22T22:49:48.566Z,1.02
2022-11-22T22:51:52.979Z,1.27
2022-11-22T22:53:57.113Z,0.95
2022-11-22T22:56:01.076Z,1.00
2022-11-22T22:58:04.752Z,1.20
2022-11-22T23:00:10.470Z,1.55
2022-11-22T23:02:13.731Z,1.15
2022-11-22T23:04:18.429Z,0.73
2022-11-22T23:06:23.276Z,1.05
2022-11-22T23:08:26.548Z,1.75
2022-11-22T23:10:29.884Z,1.20
2022-11-22T23:12:33.169Z,1.58
2022-11-22T23:14:36.539Z,1.52
2022-11-22T23:16:39.865Z,1.10
2022-11-22T23:18:44.959Z,1.70
2022-11-22T23:20:49.753Z,1.50
2022-11-22T23:22:53.051Z,1.00
2022-11-22T23:24:56.397Z,1.60
2022-11-22T23:26:59.720Z,2.05
2022-11-22T23:29:03.291Z,1.92
2022-11-22T23:31:08.143Z,1.40
2022-11-22T23:33:11.403Z,1.30
2022-11-22T23:35:14.761Z,1.00
2022-11-22T23:37:19.452Z,1.30
2022-11-22T23:39:22.737Z,1.30
2022-11-22T23:41:26.592Z,0.82
2022-11-22T23:43:30.237Z,1.60
2022-11-22T23:45:33.426Z,1.10
2022-11-22T23:47:36.779Z,1.05
2022-11-22T23:49:40.131Z,1.30
2022-11-22T23:51:43.524Z,1.05
2022-11-22T23:53:48.363Z,1.30
2022-11-22T23:55:51.620Z,1.10
2022-11-22T23:57:54.913Z,1.13
2022-11-22T23:59:58.351Z,1.50
